Alfonso Bonilla Aragón International Airport

Airport
ICAO code: 
SKCL
IATA Code: 
CLO
Summary
ICAO Region: 
CARSAM
Territory: 
Location: 
Palmira, Valle del Cauca Department
Serving: 
Cali
Elevation: 
3162 ft
Coordinates: 
Aerial View: 
3° 32' 38.261" N, 76° 23' 2.632" W
Metar
Observation
SKCL 050800Z 11003KT 9999 SCT030 BKN090 21/20 Q1014 NOSIG RMK A2995
Station
Cali / Alfonso Bonillaaragon
Date/Time
2021-12-05 08:00:00
Wind direction
110°
Wind speed
03 kts
Lowest cloud amount
scattered clouds
Temperature
21°C
Dew point
20°C
Humidity
94%
QNH
1014 hPa
Weather condition
n/a

Alfonso Bonilla Aragón International Airport also known as Palmaseca International Airport is an airport located in Palmira, Colombia, serving Cali and its suburbs.

Climatology

Tropical savanna climate (Köppen climate classification Aw)

Runways

Designator Length Width Surface Rops
1/19 3000 45 ASP Yes/Yes
Airport map: 
Aerial View: 

SKYbrary Partners:

Safety knowledge contributed by: